Terminal Aerodrome Forecast
Issued by NWS Twin Cities, MN

Home | Current Version | Previous Version | Text Only | Print | Product List | Glossary Off
Versions: 1 2 3 4 5 6 7 8 9 10 11 12 13 14 15 16 17

000
FTUS43 KMPX 310500
TAFSTC
TAF
KSTC 310530Z 3106/0106 14005KT P6SM SCT030 BKN050
     FM311000 14005KT P6SM VCSH SCT050 BKN080
     FM311300 15009KT P6SM SCT050 BKN120
     FM311600 15014G21KT P6SM SCT150
     FM312100 17013G20KT P6SM VCTS SCT030CB BKN070
      TEMPO 3122/0102 2SM TSRA BKN020CB OVC050
     FM010300 22008KT P6SM SCT020 BKN090=

USA.gov is the U.S. government's official web portal to all federal, state and local government web resources and services.